Time;durP1;ratioP1;P1;durP2;ratioP2;P2;SDS_P1;SDS_P2;PMS_P1;PMS_P2;Temp;Humidity;BMP_temperature;BMP_pressure;BME280_temperature;BME280_humidity;BME280_pressure;Samples;Min_cycle;Max_cycle;Signal;HPM_P1;HPM_P2
2021/01/08 00:01:41;;;;;;;35.40;22.13;;;0.50;99.90;;;;;;5098398;28;20265;-52
2021/01/08 00:04:07;;;;;;;51.53;26.00;;;0.40;99.90;;;;;;5098440;28;20384;-53
2021/01/08 00:06:33;;;;;;;46.95;24.20;;;0.40;99.90;;;;;;5098121;28;20085;-52
2021/01/08 00:08:58;;;;;;;48.25;24.70;;;0.50;99.90;;;;;;5098281;28;20066;-52
2021/01/08 00:11:24;;;;;;;38.03;21.83;;;0.50;99.90;;;;;;5098058;28;20252;-52
2021/01/08 00:13:50;;;;;;;35.47;21.70;;;0.50;99.90;;;;;;5097155;28;20055;-52
2021/01/08 00:16:16;;;;;;;43.80;23.67;;;0.50;99.90;;;;;;5097958;28;20491;-52
2021/01/08 00:18:43;;;;;;;41.27;21.50;;;0.50;99.90;;;;;;5097898;28;20265;-52
2021/01/08 00:21:09;;;;;;;36.63;21.73;;;0.60;99.90;;;;;;5083441;28;20404;-52
2021/01/08 00:23:35;;;;;;;43.07;23.73;;;0.50;99.90;;;;;;5077321;28;20062;-52
2021/01/08 00:26:00;;;;;;;37.20;21.83;;;0.50;99.90;;;;;;5077561;28;20031;-52
2021/01/08 00:28:26;;;;;;;34.70;20.37;;;0.50;99.90;;;;;;5077891;28;20028;-53
2021/01/08 00:30:52;;;;;;;46.80;24.80;;;0.50;99.90;;;;;;5077672;28;20034;-53
2021/01/08 00:33:18;;;;;;;40.47;21.37;;;0.60;99.90;;;;;;5077439;28;20407;-52
2021/01/08 00:35:43;;;;;;;39.13;21.77;;;0.50;99.90;;;;;;5077220;28;20130;-52
2021/01/08 00:38:09;;;;;;;38.80;21.20;;;0.50;99.90;;;;;;5087413;28;20491;-53
2021/01/08 00:40:35;;;;;;;37.87;23.40;;;0.50;99.90;;;;;;5097272;28;19908;-52
2021/01/08 00:43:00;;;;;;;37.77;21.30;;;0.50;99.90;;;;;;5097787;28;20055;-52
2021/01/08 00:45:26;;;;;;;34.70;21.03;;;0.60;99.90;;;;;;5097457;28;20077;-53
2021/01/08 00:47:52;;;;;;;39.60;20.57;;;0.60;99.90;;;;;;5096311;28;20027;-52
2021/01/08 00:50:18;;;;;;;35.93;19.27;;;0.70;99.90;;;;;;5097703;28;20107;-54
2021/01/08 00:52:44;;;;;;;37.73;20.63;;;0.70;99.90;;;;;;5097689;28;20054;-52
2021/01/08 00:55:10;;;;;;;38.40;21.30;;;0.80;99.90;;;;;;5097476;28;20054;-51
2021/01/08 00:57:36;;;;;;;30.07;18.80;;;0.80;99.90;;;;;;5097497;28;20050;-52
2021/01/08 01:00:04;;;;;;;37.10;20.67;;;0.80;99.90;;;;;;5097018;28;20466;-53
2021/01/08 01:02:32;;;;;;;36.10;20.33;;;0.80;99.90;;;;;;5096089;28;20049;-53
2021/01/08 01:04:58;;;;;;;34.53;18.40;;;0.80;99.90;;;;;;5096986;28;20063;-53
2021/01/08 01:07:23;;;;;;;33.10;19.17;;;0.80;99.90;;;;;;5097237;28;20080;-53
2021/01/08 01:09:49;;;;;;;34.47;19.50;;;0.80;99.90;;;;;;5097423;28;20327;-52
2021/01/08 01:12:14;;;;;;;39.77;18.47;;;0.80;99.90;;;;;;5096618;28;20028;-52
2021/01/08 01:14:40;;;;;;;30.67;16.90;;;0.80;99.90;;;;;;5096058;28;20079;-53
2021/01/08 01:17:06;;;;;;;35.47;18.73;;;0.80;99.90;;;;;;5097241;28;20020;-52
2021/01/08 01:19:32;;;;;;;27.43;16.77;;;0.90;99.90;;;;;;5096260;28;20035;-52
2021/01/08 01:21:57;;;;;;;28.90;16.55;;;0.90;99.90;;;;;;5077125;28;20265;-52
2021/01/08 01:24:23;;;;;;;34.67;18.17;;;0.90;99.90;;;;;;5076350;28;20028;-52
2021/01/08 01:26:55;;;;;;;32.63;17.83;;;1.00;99.90;;;;;;5076679;28;20434;-52
2021/01/08 01:29:24;;;;;;;29.10;15.47;;;1.00;99.90;;;;;;5076385;28;20017;-53
2021/01/08 01:31:50;;;;;;;30.60;16.43;;;1.10;99.90;;;;;;5076522;28;20272;-52
2021/01/08 01:34:16;;;;;;;28.83;16.40;;;1.10;99.90;;;;;;5076163;28;20322;-53
2021/01/08 01:36:42;;;;;;;30.10;15.57;;;1.10;99.90;;;;;;5077070;28;20273;-53
2021/01/08 01:39:08;;;;;;;29.90;15.90;;;1.20;99.90;;;;;;5076520;28;20028;-53
2021/01/08 01:41:33;;;;;;;33.93;17.50;;;1.20;99.90;;;;;;5077070;28;20118;-53
2021/01/08 01:43:59;;;;;;;34.23;18.13;;;1.20;99.90;;;;;;5074629;28;20025;-52
2021/01/08 01:46:25;;;;;;;31.23;17.90;;;1.30;99.90;;;;;;5076756;28;20045;-52
2021/01/08 01:48:52;;;;;;;26.70;15.10;;;1.30;99.90;;;;;;5087734;28;20027;-52
2021/01/08 01:51:20;;;;;;;28.03;15.97;;;1.20;99.90;;;;;;5096679;28;20055;-53
2021/01/08 01:53:49;;;;;;;21.97;12.97;;;1.20;99.90;;;;;;5096562;28;20165;-52
2021/01/08 01:56:15;;;;;;;22.03;13.13;;;1.20;99.90;;;;;;5096470;28;20265;-52
2021/01/08 01:58:41;;;;;;;25.20;13.57;;;1.30;99.90;;;;;;5096341;28;20071;-52
2021/01/08 02:01:09;;;;;;;24.73;15.37;;;1.30;99.90;;;;;;5096271;28;20042;-52
2021/01/08 02:03:50;;;;;;;25.63;13.73;;;1.40;99.90;;;;;;5096669;28;20020;-52
2021/01/08 02:06:20;;;;;;;24.67;12.87;;;1.40;99.90;;;;;;5096185;28;20393;-52
2021/01/08 02:08:53;;;;;;;25.85;14.65;;;1.40;99.90;;;;;;5096658;28;20273;-52
2021/01/08 02:11:23;;;;;;;29.57;14.03;;;1.40;99.90;;;;;;5096514;28;20566;-52
2021/01/08 02:13:57;;;;;;;27.17;14.93;;;1.40;99.90;;;;;;5096267;28;20249;-52
2021/01/08 02:16:24;;;;;;;22.23;13.60;;;1.40;99.90;;;;;;5096440;28;20195;-53
2021/01/08 02:18:53;;;;;;;26.13;14.50;;;1.40;99.90;;;;;;5096235;28;20263;-52
2021/01/08 02:21:24;;;;;;;27.77;14.93;;;1.40;99.90;;;;;;5095848;28;20253;-56
2021/01/08 02:24:13;;;;;;;28.43;15.90;;;1.40;99.90;;;;;;5096151;28;20308;-52
2021/01/08 02:26:40;;;;;;;29.57;17.33;;;1.40;99.90;;;;;;5096533;28;20276;-52
2021/01/08 02:29:06;;;;;;;33.80;18.87;;;1.50;99.90;;;;;;5096291;28;19990;-52
2021/01/08 02:31:32;;;;;;;29.93;19.83;;;1.40;99.90;;;;;;5096113;28;20287;-51
2021/01/08 02:33:58;;;;;;;34.00;19.30;;;1.50;99.90;;;;;;5096817;28;20032;-52
2021/01/08 02:36:25;;;;;;;31.10;17.67;;;1.50;99.90;;;;;;5098049;28;19915;-54
2021/01/08 02:38:51;;;;;;;31.07;18.13;;;1.40;99.90;;;;;;5100271;28;20291;-52
2021/01/08 02:41:19;;;;;;;30.73;17.53;;;1.50;99.90;;;;;;5100240;28;19915;-52
2021/01/08 02:43:46;;;;;;;26.30;15.90;;;1.50;99.90;;;;;;5099722;28;20059;-52
2021/01/08 02:46:12;;;;;;;30.43;18.80;;;1.40;99.90;;;;;;5099911;28;20260;-52
2021/01/08 02:48:38;;;;;;;31.35;17.30;;;1.50;99.90;;;;;;5099808;28;20245;-52
2021/01/08 02:51:03;;;;;;;30.20;16.33;;;1.50;99.90;;;;;;5100183;28;20081;-53
2021/01/08 02:53:32;;;;;;;28.77;16.83;;;1.40;99.90;;;;;;5099508;28;20024;-52
2021/01/08 02:56:04;;;;;;;29.33;18.07;;;1.50;99.90;;;;;;5098370;28;20039;-52
2021/01/08 02:58:32;;;;;;;37.83;19.13;;;1.50;99.90;;;;;;5100042;28;19905;-52
2021/01/08 03:00:58;;;;;;;32.83;18.67;;;1.50;99.90;;;;;;5099249;28;20252;-52
2021/01/08 03:03:27;;;;;;;32.57;17.97;;;1.40;99.90;;;;;;5099530;28;20226;-52
2021/01/08 03:05:52;;;;;;;26.63;17.33;;;1.40;99.90;;;;;;5099796;28;20020;-52
2021/01/08 03:08:18;;;;;;;33.40;18.70;;;1.40;99.90;;;;;;5099029;28;20002;-52
2021/01/08 03:10:44;;;;;;;31.97;16.43;;;1.30;99.90;;;;;;5099419;28;20403;-52
2021/01/08 03:13:10;;;;;;;29.10;16.37;;;1.30;99.90;;;;;;5099407;28;20453;-54
2021/01/08 03:15:36;;;;;;;31.57;18.40;;;1.30;99.90;;;;;;5098994;28;20457;-52
2021/01/08 03:18:02;;;;;;;27.20;17.67;;;1.40;99.90;;;;;;5098983;28;20265;-52
2021/01/08 03:20:27;;;;;;;27.23;17.40;;;1.50;99.90;;;;;;5098906;28;20263;-54
2021/01/08 03:22:53;;;;;;;29.80;16.65;;;1.50;99.90;;;;;;5098870;28;20063;-52
2021/01/08 03:25:19;;;;;;;32.23;17.03;;;1.50;99.90;;;;;;5098986;28;20062;-52
2021/01/08 03:27:44;;;;;;;26.13;13.87;;;1.40;99.90;;;;;;5097861;28;20024;-52
2021/01/08 03:30:11;;;;;;;28.40;15.67;;;1.40;99.90;;;;;;5098719;28;20020;-52
2021/01/08 03:32:37;;;;;;;24.57;15.30;;;1.50;99.90;;;;;;5098978;28;20376;-52
2021/01/08 03:35:05;;;;;;;27.10;14.13;;;1.50;99.90;;;;;;5098672;28;19908;-52
2021/01/08 03:37:30;;;;;;;25.53;14.07;;;1.50;99.90;;;;;;5098865;28;20111;-52
2021/01/08 03:39:56;;;;;;;24.47;14.27;;;1.50;99.90;;;;;;5099501;28;20082;-53
2021/01/08 03:42:22;;;;;;;30.10;14.53;;;1.60;99.90;;;;;;5098761;28;20427;-53
2021/01/08 03:44:47;;;;;;;24.43;13.83;;;1.60;99.90;;;;;;5098579;28;20430;-52
2021/01/08 03:47:13;;;;;;;24.27;14.83;;;1.60;99.90;;;;;;5098208;28;20111;-52
2021/01/08 03:49:38;;;;;;;25.60;13.80;;;1.60;99.90;;;;;;5097492;28;19935;-52
2021/01/08 03:52:06;;;;;;;28.40;15.97;;;1.60;99.90;;;;;;5098219;28;20427;-51
2021/01/08 03:54:32;;;;;;;26.65;14.10;;;1.70;99.90;;;;;;5098966;28;20032;-53
2021/01/08 03:56:57;;;;;;;26.27;15.67;;;1.70;99.90;;;;;;5098628;28;19912;-53
2021/01/08 03:59:23;;;;;;;21.25;13.05;;;1.70;99.90;;;;;;5098610;28;20307;-54
2021/01/08 04:01:49;;;;;;;24.23;13.93;;;1.70;99.90;;;;;;5098800;28;20039;-54
2021/01/08 04:04:14;;;;;;;29.50;15.50;;;1.70;99.90;;;;;;5098087;28;20536;-53
2021/01/08 04:06:40;;;;;;;24.57;14.63;;;1.60;99.90;;;;;;5098848;28;19915;-53
2021/01/08 04:09:05;;;;;;;26.00;14.40;;;1.60;99.90;;;;;;5098139;28;20075;-53
2021/01/08 04:11:32;;;;;;;28.93;17.23;;;1.50;99.90;;;;;;5097996;28;20442;-52
2021/01/08 04:13:58;;;;;;;30.70;16.60;;;1.50;99.90;;;;;;5098086;28;20032;-52
2021/01/08 04:16:23;;;;;;;26.03;14.17;;;1.60;99.90;;;;;;5098394;28;20073;-52
2021/01/08 04:18:49;;;;;;;26.40;14.63;;;1.60;99.90;;;;;;5097769;28;20040;-52
2021/01/08 04:21:15;;;;;;;26.35;16.05;;;1.60;99.90;;;;;;5083086;28;20036;-52
2021/01/08 04:23:41;;;;;;;26.40;14.63;;;1.60;99.90;;;;;;5077980;28;20043;-52
2021/01/08 04:26:07;;;;;;;30.07;15.00;;;1.60;99.90;;;;;;5077538;28;20378;-52
2021/01/08 04:28:33;;;;;;;21.30;14.13;;;1.60;99.90;;;;;;5077505;28;20024;-52
2021/01/08 04:30:59;;;;;;;23.93;14.53;;;1.70;99.90;;;;;;5077503;28;20316;-53
2021/01/08 04:33:24;;;;;;;27.13;15.80;;;1.70;99.90;;;;;;5077897;28;20097;-56
2021/01/08 04:35:53;;;;;;;28.03;15.67;;;1.70;99.90;;;;;;5077375;28;20028;-52
2021/01/08 04:38:18;;;;;;;30.33;16.87;;;1.70;99.90;;;;;;5088434;28;20032;-52
2021/01/08 04:40:44;;;;;;;26.70;17.40;;;1.70;99.90;;;;;;5097568;28;19908;-52
2021/01/08 04:43:10;;;;;;;31.10;18.00;;;1.70;99.90;;;;;;5078973;28;20347;-52
2021/01/08 04:45:35;;;;;;;31.30;16.90;;;1.80;99.90;;;;;;5077601;28;20028;-52
2021/01/08 04:48:02;;;;;;;29.37;16.83;;;1.80;99.90;;;;;;5077191;28;20491;-52
2021/01/08 04:50:29;;;;;;;25.37;16.90;;;1.80;99.90;;;;;;5076963;28;20367;-52
2021/01/08 04:52:56;;;;;;;34.07;18.60;;;1.80;99.90;;;;;;5077213;28;20079;-53
2021/01/08 04:55:24;;;;;;;27.87;16.27;;;1.80;99.90;;;;;;5082769;28;20622;-52
2021/01/08 04:57:53;;;;;;;34.90;19.53;;;1.80;99.90;;;;;;5097075;28;20261;-52
2021/01/08 05:00:19;;;;;;;29.37;17.13;;;1.80;99.90;;;;;;5097291;28;19904;-52
2021/01/08 05:02:45;;;;;;;27.30;17.07;;;1.70;99.90;;;;;;5097491;28;19908;-52
2021/01/08 05:05:13;;;;;;;31.03;17.67;;;1.80;99.90;;;;;;5097326;28;19931;-52
2021/01/08 05:07:38;;;;;;;26.57;16.23;;;1.80;99.90;;;;;;5095911;28;19972;-52
2021/01/08 05:10:04;;;;;;;28.73;18.07;;;1.80;99.90;;;;;;5096508;28;20296;-52
2021/01/08 05:12:43;;;;;;;28.13;16.47;;;1.90;99.90;;;;;;5097240;28;20031;-53
2021/01/08 05:15:13;;;;;;;31.37;17.57;;;1.90;99.90;;;;;;5097433;28;20024;-52
2021/01/08 05:17:40;;;;;;;32.57;17.17;;;1.90;99.90;;;;;;5097309;28;20024;-52
2021/01/08 05:20:07;;;;;;;30.87;17.23;;;1.90;99.90;;;;;;5091616;28;19995;-52
2021/01/08 05:22:33;;;;;;;25.57;14.33;;;1.90;99.90;;;;;;5076348;28;19908;-52
2021/01/08 05:25:10;;;;;;;26.83;16.07;;;1.90;99.90;;;;;;5076618;28;20369;-52
2021/01/08 05:27:36;;;;;;;23.27;13.57;;;1.90;99.90;;;;;;5076536;28;19904;-52
2021/01/08 05:30:26;;;;;;;25.27;14.90;;;1.90;99.90;;;;;;5076474;28;19949;-52
2021/01/08 05:33:04;;;;;;;25.57;15.10;;;1.90;99.90;;;;;;5076827;28;19908;-53
2021/01/08 05:35:32;;;;;;;23.97;13.87;;;1.90;99.90;;;;;;5076589;28;20264;-53
2021/01/08 05:38:05;;;;;;;26.23;14.63;;;1.90;99.90;;;;;;5076447;28;20378;-52
2021/01/08 05:40:31;;;;;;;25.50;13.35;;;1.90;99.90;;;;;;5076511;28;20077;-53
2021/01/08 05:43:01;;;;;;;22.27;13.63;;;1.90;99.90;;;;;;5076640;28;20305;-53
2021/01/08 05:45:29;;;;;;;31.90;13.10;;;1.90;99.90;;;;;;5076768;28;19990;-53
2021/01/08 05:47:57;;;;;;;29.73;13.20;;;1.90;99.90;;;;;;5078617;28;19908;-53
2021/01/08 05:50:25;;;;;;;27.13;13.40;;;1.80;99.90;;;;;;5096290;28;20229;-53
2021/01/08 05:52:56;;;;;;;23.90;13.67;;;1.80;99.90;;;;;;5096483;28;19962;-54
2021/01/08 05:55:22;;;;;;;22.13;12.37;;;1.90;99.90;;;;;;5096550;28;20683;-52
2021/01/08 05:57:50;;;;;;;27.23;13.77;;;1.90;99.90;;;;;;5096171;28;20263;-52
2021/01/08 06:00:17;;;;;;;24.47;13.77;;;2.00;99.90;;;;;;5096396;28;20039;-52
2021/01/08 06:02:43;;;;;;;26.93;14.23;;;2.00;99.90;;;;;;5095674;28;20219;-53
2021/01/08 06:05:10;;;;;;;26.87;14.93;;;1.90;99.90;;;;;;5096528;28;20349;-53
2021/01/08 06:07:40;;;;;;;33.80;17.10;;;1.90;99.90;;;;;;5096492;28;19920;-53
2021/01/08 06:10:08;;;;;;;30.30;16.65;;;1.90;99.90;;;;;;5096689;28;20280;-53
2021/01/08 06:12:38;;;;;;;35.77;16.97;;;1.90;99.90;;;;;;5100352;28;20257;-53
2021/01/08 06:15:10;;;;;;;34.53;15.07;;;1.90;99.90;;;;;;5100464;28;19907;-53
2021/01/08 06:17:37;;;;;;;25.90;14.50;;;1.90;99.90;;;;;;5100737;28;19904;-53
2021/01/08 06:20:05;;;;;;;29.43;14.83;;;1.90;99.90;;;;;;5100164;28;19908;-53
2021/01/08 06:22:39;;;;;;;33.20;17.40;;;1.80;99.90;;;;;;5100471;28;19927;-51
2021/01/08 06:25:09;;;;;;;31.07;16.63;;;1.80;99.90;;;;;;5100569;28;20268;-51
2021/01/08 06:27:36;;;;;;;37.03;17.23;;;1.80;99.90;;;;;;5100707;28;20257;-51
2021/01/08 06:30:05;;;;;;;33.03;17.57;;;1.80;99.90;;;;;;5100230;28;19904;-52
2021/01/08 06:32:32;;;;;;;37.17;16.43;;;1.80;99.90;;;;;;5100308;28;20259;-52
2021/01/08 06:35:11;;;;;;;38.00;17.70;;;1.80;99.90;;;;;;5098820;28;19908;-52
2021/01/08 06:37:40;;;;;;;37.73;16.73;;;1.80;99.90;;;;;;5100173;28;19908;-53
2021/01/08 06:40:07;;;;;;;42.13;18.83;;;1.90;99.90;;;;;;5099807;28;20440;-58
2021/01/08 06:42:42;;;;;;;38.17;17.87;;;1.90;99.90;;;;;;5100460;28;20668;-52
2021/01/08 06:45:19;;;;;;;32.60;18.20;;;1.80;99.90;;;;;;5099882;28;20055;-52
2021/01/08 06:47:47;;;;;;;35.03;16.67;;;1.80;99.90;;;;;;5099602;28;20253;-52
2021/01/08 06:50:20;;;;;;;34.73;16.33;;;1.80;99.90;;;;;;5099939;28;19904;-52
2021/01/08 06:52:48;;;;;;;32.87;16.57;;;1.80;99.90;;;;;;5100101;28;20265;-52
2021/01/08 06:55:15;;;;;;;32.53;17.83;;;1.80;99.90;;;;;;5100026;28;20335;-52
2021/01/08 06:57:49;;;;;;;39.75;17.10;;;1.80;99.90;;;;;;5099393;28;20288;-52
2021/01/08 07:00:17;;;;;;;;;;;1.80;99.90;;;;;;5100250;28;20255;-52
2021/01/08 07:02:43;;;;;;;33.45;16.40;;;1.80;99.90;;;;;;5099513;28;19939;-52
2021/01/08 07:05:09;;;;;;;35.77;17.93;;;1.90;99.90;;;;;;5100103;28;20291;-57
2021/01/08 07:07:35;;;;;;;36.33;18.60;;;1.90;99.90;;;;;;5099491;28;20096;-53
2021/01/08 07:10:03;;;;;;;35.50;19.47;;;1.90;99.90;;;;;;5098330;28;20257;-54
2021/01/08 07:12:28;;;;;;;39.13;17.77;;;1.90;99.90;;;;;;5099776;28;19912;-52
2021/01/08 07:14:54;;;;;;;39.10;21.23;;;2.00;99.90;;;;;;5099768;28;19916;-52
2021/01/08 07:17:31;;;;;;;34.83;17.83;;;2.00;99.90;;;;;;5099440;28;20358;-53
2021/01/08 07:20:00;;;;;;;29.60;17.23;;;2.00;99.90;;;;;;5096338;28;20028;-53
2021/01/08 07:22:37;;;;;;;38.03;18.70;;;2.00;99.90;;;;;;5079604;28;20028;-52
2021/01/08 07:25:05;;;;;;;34.40;19.00;;;2.00;99.90;;;;;;5079893;28;19908;-53
2021/01/08 07:27:32;;;;;;;32.87;17.40;;;2.10;99.90;;;;;;5079725;28;20290;-52
2021/01/08 07:29:59;;;;;;;35.67;19.03;;;2.00;99.90;;;;;;5079027;28;20039;-53
2021/01/08 07:32:35;;;;;;;40.90;19.17;;;2.10;99.90;;;;;;5078919;28;19999;-52
2021/01/08 07:35:21;;;;;;;38.03;18.60;;;2.10;99.90;;;;;;5079302;28;20254;-52
2021/01/08 07:38:06;;;;;;;35.03;19.00;;;2.10;99.90;;;;;;5079423;28;20257;-52
2021/01/08 07:40:36;;;;;;;29.97;16.17;;;2.20;99.90;;;;;;5079460;28;20344;-52
2021/01/08 07:43:09;;;;;;;41.03;17.67;;;2.10;99.90;;;;;;5079134;28;20316;-52
2021/01/08 07:45:47;;;;;;;34.72;18.13;;;2.10;99.90;;;;;;5078942;28;19985;-53
2021/01/08 07:48:38;;;;;;;30.67;17.47;;;2.10;99.90;;;;;;5078710;28;20044;-52
2021/01/08 07:51:12;;;;;;;34.43;18.27;;;2.20;99.90;;;;;;5078575;28;19944;-52
2021/01/08 07:53:43;;;;;;;42.10;20.20;;;2.20;99.90;;;;;;5078388;28;20330;-53
2021/01/08 07:56:14;;;;;;;32.75;17.05;;;2.10;99.90;;;;;;5077204;28;19905;-52
2021/01/08 07:58:40;;;;;;;36.63;18.40;;;2.10;99.90;;;;;;5078043;28;20063;-52
2021/01/08 08:01:08;;;;;;;36.10;17.70;;;2.20;99.90;;;;;;5078045;28;20029;-52
2021/01/08 08:03:34;;;;;;;31.80;17.20;;;2.20;99.90;;;;;;5078071;28;20078;-54
2021/01/08 08:06:01;;;;;;;33.47;17.20;;;2.20;99.90;;;;;;5078439;28;19951;-53
2021/01/08 08:08:27;;;;;;;36.60;18.33;;;2.10;99.90;;;;;;5098129;28;19920;-53
2021/01/08 08:10:52;;;;;;;31.87;18.47;;;2.20;99.90;;;;;;5098517;28;20130;-53
2021/01/08 08:13:27;;;;;;;33.23;17.43;;;2.20;99.90;;;;;;5098133;28;19908;-52
2021/01/08 08:15:52;;;;;;;37.40;17.27;;;2.20;99.90;;;;;;5098289;28;20021;-52
2021/01/08 08:18:18;;;;;;;39.67;17.30;;;2.20;99.90;;;;;;5097905;28;19904;-53
2021/01/08 08:20:44;;;;;;;38.07;18.10;;;2.20;99.90;;;;;;5087032;28;20024;-54
2021/01/08 08:23:18;;;;;;;33.83;16.60;;;2.30;99.90;;;;;;5077608;28;20025;-52
2021/01/08 08:25:45;;;;;;;31.27;16.27;;;2.20;99.90;;;;;;5077631;28;20024;-52
2021/01/08 08:28:11;;;;;;;33.80;18.13;;;2.30;99.90;;;;;;5077604;28;20033;-53
2021/01/08 08:30:37;;;;;;;38.07;18.30;;;2.30;99.90;;;;;;5077365;28;20259;-53
2021/01/08 08:33:06;;;;;;;34.87;16.93;;;2.30;99.90;;;;;;5076820;28;20126;-53
2021/01/08 08:35:35;;;;;;;33.77;17.97;;;2.30;99.90;;;;;;5076985;28;20120;-53
2021/01/08 08:38:01;;;;;;;30.43;15.53;;;2.30;99.90;;;;;;5085908;28;20047;-52
2021/01/08 08:40:29;;;;;;;31.27;16.43;;;2.30;99.90;;;;;;5097543;28;19955;-52
2021/01/08 08:42:56;;;;;;;31.67;16.90;;;2.30;99.90;;;;;;5097091;28;20402;-53
2021/01/08 08:45:26;;;;;;;35.73;18.53;;;2.40;99.90;;;;;;5097476;28;20077;-52
2021/01/08 08:47:54;;;;;;;35.07;16.47;;;2.40;99.90;;;;;;5097434;28;20111;-53
2021/01/08 08:50:21;;;;;;;37.47;18.07;;;2.40;99.90;;;;;;5097512;28;20057;-53
2021/01/08 08:52:47;;;;;;;29.77;15.83;;;2.40;99.90;;;;;;5096378;28;20372;-59
2021/01/08 08:55:28;;;;;;;35.55;17.80;;;2.50;99.90;;;;;;5095265;28;20024;-60
2021/01/08 08:58:05;;;;;;;34.50;16.63;;;2.50;99.90;;;;;;5097595;28;20441;-59
2021/01/08 09:00:32;;;;;;;26.37;14.43;;;2.60;99.90;;;;;;5097425;28;20101;-59
2021/01/08 09:02:58;;;;;;;27.15;15.80;;;2.60;99.90;;;;;;5097160;28;20038;-59
2021/01/08 09:05:34;;;;;;;27.77;14.83;;;2.70;99.90;;;;;;5095708;28;20477;-59
2021/01/08 09:08:26;;;;;;;30.17;15.07;;;2.70;99.90;;;;;;5096537;28;19959;-59
2021/01/08 09:10:59;;;;;;;22.80;13.87;;;2.70;99.90;;;;;;5097593;28;19908;-59
2021/01/08 09:13:59;;;;;;;25.92;14.88;;;2.80;99.90;;;;;;5097385;28;20236;-59
2021/01/08 09:16:52;;;;;;;31.33;17.27;;;2.80;99.90;;;;;;5089722;28;20059;-59
2021/01/08 09:19:36;;;;;;;28.48;15.00;;;2.70;99.90;;;;;;5097315;28;20039;-59
2021/01/08 09:22:03;;;;;;;;;;;2.70;99.90;;;;;;5075972;28;20024;-59
2021/01/08 09:24:31;;;;;;;26.60;14.67;;;2.70;99.90;;;;;;5076679;28;19919;-59
2021/01/08 09:27:01;;;;;;;26.57;16.17;;;2.70;99.90;;;;;;5076701;28;20056;-59
2021/01/08 09:29:33;;;;;;;29.93;14.30;;;2.70;99.90;;;;;;5076771;28;20028;-58
2021/01/08 09:32:00;;;;;;;31.27;16.43;;;2.80;99.90;;;;;;5076752;28;19904;-58
2021/01/08 09:34:26;;;;;;;31.87;16.07;;;2.80;99.90;;;;;;5076521;28;20029;-58
2021/01/08 09:36:54;;;;;;;34.15;15.90;;;2.70;99.90;;;;;;5076476;28;20128;-57
2021/01/08 09:39:22;;;;;;;28.23;18.23;;;2.70;99.90;;;;;;5076326;28;20028;-57
2021/01/08 09:41:59;;;;;;;34.13;16.73;;;2.60;99.90;;;;;;5086096;28;20019;-58
2021/01/08 09:44:36;;;;;;;31.40;17.00;;;2.70;99.90;;;;;;5095684;28;19965;-58
2021/01/08 09:47:08;;;;;;;32.97;16.53;;;2.80;99.90;;;;;;5096479;28;20028;-59
2021/01/08 09:49:52;;;;;;;30.63;16.13;;;2.80;99.90;;;;;;5087260;28;20131;-58
2021/01/08 09:52:27;;;;;;;32.83;16.37;;;2.90;99.90;;;;;;5084693;28;20035;-58
2021/01/08 09:54:53;;;;;;;31.90;16.80;;;2.80;99.90;;;;;;5083276;28;20123;-58
2021/01/08 09:57:30;;;;;;;31.00;16.30;;;2.80;99.90;;;;;;5085299;28;20379;-58
2021/01/08 09:59:58;;;;;;;28.50;15.80;;;2.90;99.90;;;;;;5082884;28;20106;-58
2021/01/08 10:02:36;;;;;;;25.97;16.73;;;2.90;99.90;;;;;;5082869;28;20407;-58
2021/01/08 10:05:02;;;;;;;32.33;18.03;;;2.90;99.90;;;;;;5085426;28;20020;-58
2021/01/08 10:07:42;;;;;;;30.13;16.80;;;2.90;99.90;;;;;;5083332;28;19956;-57
2021/01/08 10:10:10;;;;;;;35.60;16.13;;;3.00;99.90;;;;;;5083945;28;20471;-58
2021/01/08 10:12:49;;;;;;;32.67;16.00;;;3.00;99.90;;;;;;5089668;28;20066;-58
2021/01/08 10:15:16;;;;;;;29.13;15.30;;;3.00;99.90;;;;;;5086112;28;20047;-58
2021/01/08 10:17:50;;;;;;;29.03;16.43;;;3.00;99.90;;;;;;5085353;28;20131;-59
2021/01/08 10:20:24;;;;;;;29.80;15.87;;;3.00;99.90;;;;;;5079593;28;19969;-59
2021/01/08 10:22:52;;;;;;;31.33;16.00;;;3.00;99.90;;;;;;5085627;28;20047;-59
2021/01/08 10:25:36;;;;;;;27.10;14.97;;;3.10;99.90;;;;;;5082703;28;20031;-58
2021/01/08 10:28:14;;;;;;;27.10;16.70;;;3.20;99.90;;;;;;5083420;28;20020;-59
2021/01/08 10:30:40;;;;;;;30.53;15.67;;;3.30;99.90;;;;;;5085563;28;20024;-59
2021/01/08 10:33:07;;;;;;;36.50;16.67;;;3.20;99.90;;;;;;5083262;28;20036;-59
2021/01/08 10:35:34;;;;;;;31.63;16.93;;;3.10;99.90;;;;;;5082832;28;20465;-59
2021/01/08 10:38:00;;;;;;;31.03;16.60;;;3.20;99.90;;;;;;5084761;28;20024;-59
2021/01/08 10:40:26;;;;;;;28.40;15.90;;;3.20;99.90;;;;;;5082109;28;20035;-58
2021/01/08 10:42:55;;;;;;;35.87;18.03;;;3.20;99.90;;;;;;5083981;28;20056;-58
2021/01/08 10:45:21;;;;;;;38.57;21.07;;;3.30;99.90;;;;;;5083693;28;20458;-58
2021/01/08 10:47:46;;;;;;;34.10;17.87;;;3.30;99.90;;;;;;5084386;28;20057;-58
2021/01/08 10:50:13;;;;;;;36.93;20.93;;;3.30;99.90;;;;;;5084991;28;20036;-58
2021/01/08 10:52:39;;;;;;;40.70;21.00;;;3.20;99.90;;;;;;5082588;28;20078;-58
2021/01/08 10:55:08;;;;;;;33.60;18.93;;;3.40;99.90;;;;;;5084444;28;20028;-59
2021/01/08 10:57:34;;;;;;;33.77;16.90;;;3.40;99.90;;;;;;5086946;28;20032;-58
2021/01/08 10:59:59;;;;;;;34.93;17.97;;;3.50;99.90;;;;;;5088687;28;20461;-57
2021/01/08 11:02:25;;;;;;;34.10;17.60;;;3.40;99.90;;;;;;5088211;28;20442;-59
2021/01/08 11:04:51;;;;;;;33.83;17.50;;;3.50;99.90;;;;;;5087454;28;20062;-58
2021/01/08 11:07:16;;;;;;;41.73;18.10;;;3.50;99.90;;;;;;5089721;28;20039;-58
2021/01/08 11:09:42;;;;;;;34.33;19.70;;;3.50;99.90;;;;;;5086804;28;20395;-59
2021/01/08 11:12:08;;;;;;;34.13;18.13;;;3.50;99.90;;;;;;5087498;28;20474;-59
2021/01/08 11:14:34;;;;;;;39.80;19.33;;;3.60;99.90;;;;;;5088886;28;20438;-60
2021/01/08 11:17:00;;;;;;;39.37;20.07;;;3.70;99.90;;;;;;5068291;28;20024;-58
2021/01/08 11:19:25;;;;;;;33.30;17.47;;;3.60;99.90;;;;;;5088483;28;20039;-59
2021/01/08 11:21:54;;;;;;;39.60;20.90;;;3.60;99.90;;;;;;5083202;28;20504;-60
2021/01/08 11:24:20;;;;;;;36.87;20.97;;;3.70;99.90;;;;;;5086953;28;20039;-60
2021/01/08 11:26:46;;;;;;;39.03;18.43;;;3.90;99.90;;;;;;5086229;28;20016;-61
2021/01/08 11:29:12;;;;;;;32.77;17.47;;;3.90;99.90;;;;;;5089285;28;20105;-58
2021/01/08 11:31:39;;;;;;;39.80;19.73;;;3.90;99.90;;;;;;5094304;28;20186;-60
2021/01/08 11:34:05;;;;;;;42.00;18.97;;;3.90;99.90;;;;;;5089502;28;20028;-59
2021/01/08 11:36:31;;;;;;;38.80;19.97;;;4.00;99.90;;;;;;5087682;28;20032;-52
2021/01/08 11:38:57;;;;;;;40.87;20.60;;;3.90;99.90;;;;;;5087760;28;20439;-59
2021/01/08 11:41:23;;;;;;;40.60;20.53;;;3.80;99.90;;;;;;5083693;28;20032;-53
2021/01/08 11:43:49;;;;;;;36.93;19.07;;;3.80;99.90;;;;;;5089023;28;20032;-54
2021/01/08 11:46:19;;;;;;;36.10;18.50;;;3.70;99.90;;;;;;5087503;28;20407;-52
2021/01/08 11:48:46;;;;;;;34.03;19.03;;;3.70;99.90;;;;;;5090641;28;20024;-53
2021/01/08 11:51:15;;;;;;;41.90;20.33;;;3.70;99.90;;;;;;5088575;28;20028;-53
2021/01/08 11:53:42;;;;;;;40.73;19.90;;;3.70;99.90;;;;;;5086526;28;20086;-52
2021/01/08 11:56:09;;;;;;;37.30;19.10;;;3.60;99.90;;;;;;5083176;28;20052;-53
2021/01/08 11:58:38;;;;;;;43.70;21.40;;;3.60;99.90;;;;;;5086346;28;20035;-52
2021/01/08 12:01:06;;;;;;;41.10;21.40;;;3.60;99.90;;;;;;5084853;28;20051;-52
2021/01/08 12:03:32;;;;;;;40.20;20.03;;;3.60;99.90;;;;;;5085895;28;20119;-53
2021/01/08 12:05:58;;;;;;;40.63;20.10;;;3.50;99.90;;;;;;5086561;28;20435;-52
2021/01/08 12:08:24;;;;;;;41.10;20.03;;;3.50;99.90;;;;;;5083922;28;20106;-52
2021/01/08 12:10:50;;;;;;;41.33;20.67;;;3.50;99.90;;;;;;5085154;28;20162;-53
2021/01/08 12:13:16;;;;;;;40.20;18.83;;;3.50;99.90;;;;;;5084541;28;20040;-53
2021/01/08 12:15:42;;;;;;;37.97;18.57;;;3.50;99.90;;;;;;5086095;28;20082;-53
2021/01/08 12:18:09;;;;;;;37.27;18.77;;;3.50;99.90;;;;;;5086101;28;20024;-52
2021/01/08 12:20:36;;;;;;;38.47;17.53;;;3.60;99.90;;;;;;5086147;28;20032;-53
2021/01/08 12:23:03;;;;;;;36.93;18.80;;;3.60;99.90;;;;;;5082474;28;20024;-53
2021/01/08 12:25:29;;;;;;;43.30;21.60;;;3.70;99.90;;;;;;5084579;28;19999;-54
2021/01/08 12:27:54;;;;;;;35.23;19.13;;;3.80;99.90;;;;;;5084408;28;20138;-52
2021/01/08 12:30:20;;;;;;;33.10;17.07;;;3.70;99.90;;;;;;5085949;28;20457;-53
2021/01/08 12:32:45;;;;;;;33.27;16.57;;;3.60;99.90;;;;;;5082412;28;20362;-53
2021/01/08 12:35:11;;;;;;;34.97;15.63;;;3.60;99.90;;;;;;5084515;28;20032;-53
2021/01/08 12:37:37;;;;;;;37.47;17.00;;;3.60;99.90;;;;;;5085161;28;20035;-53
2021/01/08 12:40:03;;;;;;;37.50;18.63;;;3.70;99.90;;;;;;5083673;28;20032;-54
2021/01/08 12:42:29;;;;;;;29.43;14.50;;;3.60;99.90;;;;;;5086446;28;20039;-52
2021/01/08 12:44:55;;;;;;;27.27;15.20;;;3.60;99.90;;;;;;5087617;28;20028;-52